Portada
METAR-TAF:

METAR-TAF

Aeroports :

Talara, Perú

latitud: 04-34S, longitud: 081-15W, altitud: 85 m

Observació

L'informe es va fer fa 36 minuts, a les 18:00 UTC
Vent 15 kt del Sud
Temperatura 30°C
Humitat 59%
Pressió 1009 hPa
Visibilitat 10 km o més
sense núvols per sota de 1500 mi sense presència de cumulonimbus.

METAR: SPYL 151800Z 17015KT CAVOK 30/21 Q1009 RMK BIRD HAZARD RWY 17/35 PP000

Hora: 13:36 (18:36 UTC)

Pronòstic

L'informe es va fer fa 1 hora i 31 minuts, a les 17:05 UTC
Pronòstic vàlid del 15 a les 18 UTC al 16 a les 18 UTC
Vent 15 kt del Sud
Visibilitat 10 km o més
Núvols disperses a una alçada de 5000 ft

TAF: SPYL 151705Z 1518/1618 17015KT 9999 SCT050 TX33/1519Z TN20/1611Z

Observacions i pronòstics meteorològics de més de 4000 aeroports (METAR i TAF).

Les estacions disponibles són els punts grocs i vermells al mapa.

Posi el ratolí al punt desitjat per veure el nom de l'estació.

Feu clic per veure les observacions i els pronòstics meteorològics.

Per canviar el mapa: feu clic els botons verds amb una creu de color negre per apropar; al botó verd amb un guió per allunyar la imatge; o en les fletxes verdes per a mapes adjacents.


METAR-TAF: